Eagle River, WI

4:09 AM CDT on May 29, 2017 (GMT -0500)
Eagle River Union

Weather History for KEGV - February, 2013

Change the Weather History Date:

Thursday, February 7, 2013

  Actual Average Record
Temperature  
Mean Temperature 20 °F -  
Max Temperature 23 °F 31 °F 40 °F (1991)
Min Temperature 17 °F 8 °F -25 °F (2003)
Degree Days  
Heating Degree Days 45    
Moisture  
Dew Point 19 °F    
Average Humidity 96    
Maximum Humidity 100    
Minimum Humidity 79    
Precipitation  
Precipitation 0.00 in - - ()
Sea Level Pressure  
Sea Level Pressure 30.07 in    
Wind  
Wind Speed 7 mph (ENE)    
Max Wind Speed 15 mph    
Max Gust Speed 23 mph    
Visibility 6 miles    
Events Snow    
Averages and records for this station are not official NWS values.
T = Trace of Precipitation, MM = Missing Value Source: NWS Daily Summary

Daily Weather History Graph

Daily Weather History Graph

Search for Another Location

Airport or City:

Trip Planner

Search our weather history database for the weather conditions in past years. The results will help you decide how hot, cold, wet, or windy it might be!

Date:

Astronomy

Feb. 07, 2013 Rise Set
Actual Time 7:11 AM CST 5:12 PM CST
Civil Twilight 6:39 AM CST 5:43 PM CST
Nautical Twilight 6:04 AM CST 6:18 PM CST
Astronomical Twilight 5:29 AM CST 6:53 PM CST
Moon 4:55 AM CST (2/7) 2:31 PM CST (2/7)
Length of Visible Light 11h 03m
Length of Day
10h 01m
Waning Crescent, 9% of the Moon is Illuminated
Feb 7
Waning Crescent
Feb 10
New
Feb 17
First Quarter
Feb 25
Full
Mar 4
Last Quarter

Hourly Weather History & Observations

Time (CST) Temp. Windchill Dew Point Humidity Pressure Visibility Wind Dir Wind Speed Gust Speed Precip Events Conditions
12:15 AM 19.4 °F 12.8 °F 19.4 °F 100% 30.04 in 3.0 mi ENE 4.6 mph - N/A   Overcast
12:35 AM 19.4 °F 14.3 °F 19.4 °F 100% 30.04 in 3.0 mi East 3.5 mph - N/A   Overcast
12:55 AM 19.4 °F 14.3 °F 19.4 °F 100% 30.04 in 3.0 mi East 3.5 mph - N/A   Overcast
1:15 AM 19.4 °F 14.3 °F 19.4 °F 100% 30.04 in 4.0 mi East 3.5 mph - N/A   Overcast
1:35 AM 19.4 °F 12.8 °F 19.4 °F 100% 30.04 in 4.0 mi East 4.6 mph - N/A   Overcast
1:55 AM 19.4 °F 14.3 °F 19.4 °F 100% 30.05 in 3.0 mi East 3.5 mph - N/A   Overcast
2:15 AM 19.4 °F 12.8 °F 19.4 °F 100% 30.05 in 4.0 mi East 4.6 mph - N/A   Overcast
2:35 AM 19.4 °F 12.8 °F 19.4 °F 100% 30.05 in 3.0 mi ENE 4.6 mph - N/A   Overcast
2:55 AM 19.4 °F 12.8 °F 19.4 °F 100% 30.04 in 4.0 mi ENE 4.6 mph - N/A   Overcast
3:15 AM 19.4 °F 12.8 °F 19.4 °F 100% 30.04 in 4.0 mi ENE 4.6 mph - N/A   Overcast
3:35 AM 19.4 °F 12.8 °F 19.4 °F 100% 30.03 in 4.0 mi ENE 4.6 mph - N/A   Overcast
3:55 AM 19.4 °F 12.8 °F 19.4 °F 100% 30.03 in 5.0 mi East 4.6 mph - N/A   Overcast
4:15 AM 19.4 °F 12.8 °F 19.4 °F 100% 30.03 in 5.0 mi East 4.6 mph - N/A   Overcast
4:35 AM 19.4 °F 12.8 °F 19.4 °F 100% 30.03 in 5.0 mi East 4.6 mph - N/A   Overcast
4:55 AM 19.4 °F 12.8 °F 19.4 °F 100% 30.03 in 5.0 mi ENE 4.6 mph - N/A   Overcast
5:15 AM 19.4 °F 14.3 °F 19.4 °F 100% 30.04 in 5.0 mi East 3.5 mph - N/A   Overcast
5:35 AM 19.4 °F 14.3 °F 19.4 °F 100% 30.04 in 5.0 mi ENE 3.5 mph - N/A   Overcast
5:55 AM 19.4 °F 12.8 °F 19.4 °F 100% 30.04 in 5.0 mi East 4.6 mph - N/A   Overcast
6:15 AM 19.4 °F 11.5 °F 19.4 °F 100% 30.04 in 5.0 mi East 5.8 mph - N/A   Overcast
6:35 AM 19.4 °F 12.8 °F 19.4 °F 100% 30.04 in 4.0 mi East 4.6 mph - N/A   Overcast
6:55 AM 19.4 °F 10.4 °F 19.4 °F 100% 30.04 in 4.0 mi East 6.9 mph - N/A   Overcast
7:15 AM 19.4 °F 11.5 °F 19.4 °F 100% 30.05 in 3.0 mi East 5.8 mph - N/A   Overcast
7:55 AM 19.4 °F 11.5 °F 19.4 °F 100% 30.06 in 1.8 mi East 5.8 mph - N/A   Overcast
8:15 AM 19.4 °F 11.5 °F 19.4 °F 100% 30.06 in 1.8 mi ENE 5.8 mph - N/A   Overcast
8:35 AM 19.4 °F 11.5 °F 19.4 °F 100% 30.06 in 2.5 mi ENE 5.8 mph - N/A   Overcast
8:55 AM 19.4 °F 10.4 °F 19.4 °F 100% 30.07 in 2.5 mi ENE 6.9 mph - N/A   Overcast
9:15 AM 19.4 °F 10.4 °F 19.4 °F 100% 30.06 in 2.5 mi ENE 6.9 mph - N/A   Overcast
9:35 AM 19.4 °F 12.8 °F 19.4 °F 100% 30.06 in 4.0 mi ENE 4.6 mph - N/A   Overcast
9:55 AM 21.2 °F 12.6 °F 21.2 °F 100% 30.06 in 5.0 mi ENE 6.9 mph - N/A   Overcast
10:15 AM 21.2 °F 12.6 °F 21.2 °F 100% 30.07 in 4.0 mi ENE 6.9 mph - N/A   Overcast
10:35 AM 21.2 °F 13.6 °F 21.2 °F 100% 30.09 in 5.0 mi NE 5.8 mph - N/A   Overcast
10:55 AM 21.2 °F 11.7 °F 21.2 °F 100% 30.09 in 4.0 mi NE 8.1 mph - N/A   Overcast
11:15 AM 21.2 °F 12.6 °F 21.2 °F 100% 30.08 in 4.0 mi ENE 6.9 mph - N/A   Overcast
11:35 AM 21.2 °F 12.6 °F 21.2 °F 100% 30.06 in 4.0 mi ENE 6.9 mph - N/A   Overcast
11:55 AM 21.2 °F 12.6 °F 21.2 °F 100% 30.05 in 4.0 mi ENE 6.9 mph - N/A   Overcast
12:15 PM 21.2 °F 10.9 °F 21.2 °F 100% 30.04 in 7.0 mi NE 9.2 mph - N/A   Overcast
12:35 PM 21.2 °F 10.1 °F 21.2 °F 100% 30.05 in 5.0 mi NE 10.4 mph - N/A   Overcast
12:55 PM 23.0 °F 14.7 °F 23.0 °F 100% 30.05 in 4.0 mi NNE 6.9 mph - N/A   Overcast
1:15 PM 23.0 °F 13.1 °F 23.0 °F 100% 30.04 in 3.0 mi NE 9.2 mph - N/A   Overcast
1:35 PM 23.0 °F 11.7 °F 23.0 °F 100% 30.04 in 2.5 mi NNE 11.5 mph - N/A   Overcast
1:55 PM 23.0 °F 13.1 °F 23.0 °F 100% 30.03 in 2.5 mi NE 9.2 mph - N/A   Overcast
2:15 PM 23.0 °F 13.9 °F 23.0 °F 100% 30.03 in 3.0 mi NE 8.1 mph - N/A   Overcast
2:35 PM 23.0 °F 12.4 °F 23.0 °F 100% 30.03 in 1.8 mi NNE 10.4 mph - N/A   Overcast
2:55 PM 23.0 °F 11.7 °F 23.0 °F 100% 30.03 in 2.5 mi NE 11.5 mph - N/A   Overcast
3:15 PM 23.0 °F 11.7 °F 23.0 °F 100% 30.03 in 4.0 mi NE 11.5 mph - N/A   Overcast
3:35 PM 23.0 °F 13.1 °F 23.0 °F 100% 30.03 in 7.0 mi NE 9.2 mph - N/A   Overcast
3:55 PM 23.0 °F 11.1 °F 23.0 °F 100% 30.04 in 5.0 mi NE 12.7 mph - N/A   Overcast
4:15 PM 21.2 °F 8.9 °F 21.2 °F 100% 30.05 in 7.0 mi NE 12.7 mph - N/A   Overcast
4:35 PM 21.2 °F 10.1 °F 21.2 °F 100% 30.06 in 10.0 mi NE 10.4 mph 17.3 mph N/A   Overcast
4:55 PM 21.2 °F 10.1 °F 21.2 °F 100% 30.06 in 10.0 mi NE 10.4 mph - N/A   Overcast
5:15 PM 21.2 °F 10.9 °F 21.2 °F 100% 30.07 in 10.0 mi NE 9.2 mph - N/A   Overcast
5:35 PM 21.2 °F 10.1 °F 21.2 °F 100% 30.08 in 10.0 mi NE 10.4 mph - N/A   Overcast
5:55 PM 21.2 °F 10.9 °F 21.2 °F 100% 30.09 in 10.0 mi NE 9.2 mph 18.4 mph N/A   Overcast
6:15 PM 21.2 °F 8.3 °F 21.2 °F 100% 30.09 in 10.0 mi NE 13.8 mph - N/A   Overcast
6:35 PM 21.2 °F 9.5 °F 19.4 °F 93% 30.10 in 10.0 mi NE 11.5 mph - N/A   Overcast
6:55 PM 21.2 °F 8.3 °F 19.4 °F 93% 30.10 in 10.0 mi ENE 13.8 mph 20.7 mph N/A   Overcast
7:15 PM 21.2 °F 9.5 °F 19.4 °F 93% 30.10 in 10.0 mi NE 11.5 mph 23.0 mph N/A   Overcast
7:35 PM 21.2 °F 10.1 °F 19.4 °F 93% 30.11 in 10.0 mi NE 10.4 mph 17.3 mph N/A   Overcast
7:55 PM 21.2 °F 8.9 °F 17.6 °F 86% 30.11 in 10.0 mi ENE 12.7 mph 21.9 mph N/A   Overcast
8:15 PM 19.4 °F 5.5 °F 15.8 °F 86% 30.12 in 10.0 mi NE 15.0 mph 18.4 mph N/A   Overcast
8:35 PM 19.4 °F 6.6 °F 14.0 °F 80% 30.13 in 10.0 mi NNE 12.7 mph - N/A   Overcast
8:55 PM 19.4 °F 7.2 °F 14.0 °F 80% 30.14 in 10.0 mi NE 11.5 mph 19.6 mph N/A   Overcast
9:15 PM 19.4 °F 6.6 °F 14.0 °F 80% 30.14 in 10.0 mi NE 12.7 mph 18.4 mph N/A Snow Light Snow
9:35 PM 19.4 °F 5.5 °F 14.0 °F 80% 30.15 in 7.0 mi NE 15.0 mph 19.6 mph N/A Snow Light Snow
9:55 PM 19.4 °F 7.9 °F 14.0 °F 80% 30.15 in 5.0 mi NE 10.4 mph - N/A Snow Light Snow
10:15 PM 19.4 °F 6.6 °F 14.0 °F 80% 30.15 in 7.0 mi NE 12.7 mph - N/A Snow Light Snow
10:55 PM 17.6 °F 8.2 °F 12.2 °F 79% 30.15 in 7.0 mi NE 6.9 mph - N/A Snow Light Snow
11:15 PM 17.6 °F 7.3 °F 12.2 °F 79% 30.16 in 7.0 mi NNE 8.1 mph - N/A Snow Light Snow
11:35 PM 17.6 °F 7.3 °F 12.2 °F 79% 30.17 in 10.0 mi NNE 8.1 mph - N/A Snow Light Snow
11:55 PM 17.6 °F 6.4 °F 12.2 °F 79% 30.18 in 10.0 mi NNE 9.2 mph - N/A Snow Light Snow